createdAt,value
2019-05-06T00:01:33.985Z,100038.78
2019-05-06T00:04:01.043Z,100041.91
2019-05-06T00:06:27.387Z,100043.09
2019-05-06T00:08:54.545Z,100040.52
2019-05-06T00:11:20.889Z,100044.80
2019-05-06T00:13:47.027Z,100045.42
2019-05-06T00:16:14.346Z,100048.40
2019-05-06T00:18:40.724Z,100040.27
2019-05-06T00:21:06.917Z,100036.75
2019-05-06T00:23:44.986Z,100035.42
2019-05-06T00:26:13.647Z,100038.62
2019-05-06T00:28:42.097Z,100038.30
2019-05-06T00:33:36.061Z,100036.07
2019-05-06T00:36:04.558Z,100042.09
2019-05-06T00:41:03.894Z,100040.91
2019-05-06T00:43:29.639Z,100038.38
2019-05-06T00:45:55.767Z,100034.70
2019-05-06T00:48:21.955Z,100034.95
2019-05-06T00:50:48.091Z,100031.25
2019-05-06T00:53:23.817Z,100034.72
2019-05-06T00:55:49.931Z,100037.44
2019-05-06T00:58:16.116Z,100035.91
2019-05-06T01:00:44.161Z,100038.46
2019-05-06T01:03:10.378Z,100035.94
2019-05-06T01:05:39.731Z,100041.09
2019-05-06T01:08:06.208Z,100042.59
2019-05-06T01:10:34.426Z,100040.56
2019-05-06T01:13:20.514Z,100040.27
2019-05-06T01:15:46.646Z,100041.97
2019-05-06T01:18:13.810Z,100042.14
2019-05-06T01:20:40.093Z,100044.47
2019-05-06T01:25:34.447Z,100046.59
2019-05-06T01:28:00.110Z,100041.23
2019-05-06T01:32:54.367Z,100047.06
2019-05-06T01:35:20.711Z,100041.47
2019-05-06T01:37:48.789Z,100051.18
2019-05-06T01:40:35.181Z,100047.28
2019-05-06T01:43:03.663Z,100046.17
2019-05-06T01:45:30.003Z,100049.45
2019-05-06T01:47:56.201Z,100055.74
2019-05-06T01:50:23.558Z,100053.97
2019-05-06T01:52:49.946Z,100059.64
2019-05-06T01:55:16.090Z,100057.38
2019-05-06T01:57:44.337Z,100054.11
2019-05-06T02:00:11.308Z,100054.45
2019-05-06T02:02:37.758Z,100058.56
2019-05-06T02:05:04.922Z,100065.84
2019-05-06T02:07:31.053Z,100070.06
2019-05-06T02:09:57.571Z,100072.69
2019-05-06T02:12:24.630Z,100071.30
2019-05-06T02:14:50.884Z,100077.13
2019-05-06T02:17:17.047Z,100072.62
2019-05-06T02:19:43.823Z,100075.17
2019-05-06T02:22:13.629Z,100074.41
2019-05-06T02:24:44.760Z,100076.72
2019-05-06T02:27:10.898Z,100077.72
2019-05-06T02:29:48.097Z,100079.20
2019-05-06T02:32:35.792Z,100077.65
2019-05-06T02:35:14.306Z,100081.15
2019-05-06T02:37:46.432Z,100078.05
2019-05-06T02:40:24.849Z,100077.95
2019-05-06T02:42:54.129Z,100082.80
2019-05-06T02:45:18.950Z,100077.59
2019-05-06T02:48:04.530Z,100082.27
2019-05-06T02:50:44.656Z,100078.84
2019-05-06T02:53:13.187Z,100084.37
2019-05-06T02:55:38.870Z,100089.16
2019-05-06T02:58:05.018Z,100085.29
2019-05-06T03:00:32.998Z,100089.45
2019-05-06T03:02:59.611Z,100089.84
2019-05-06T03:05:26.004Z,100092.58
2019-05-06T03:07:56.947Z,100091.17
2019-05-06T03:10:24.322Z,100093.72
2019-05-06T03:12:48.712Z,100094.52
2019-05-06T03:15:16.806Z,100098.53
2019-05-06T03:17:43.476Z,100101.05
2019-05-06T03:20:15.411Z,100102.78
2019-05-06T03:22:43.876Z,100097.75
2019-05-06T03:25:13.482Z,100104.86
2019-05-06T03:27:39.846Z,100103.39
2019-05-06T03:30:07.108Z,100108.80
2019-05-06T03:32:41.258Z,100109.27
2019-05-06T03:35:25.777Z,100113.09
2019-05-06T03:37:32.868Z,100103.95
2019-05-06T03:39:58.415Z,100114.23
2019-05-06T03:42:24.596Z,100109.62
2019-05-06T03:44:53.441Z,100111.06
2019-05-06T03:47:27.625Z,100116.32
2019-05-06T03:49:54.860Z,100118.95
2019-05-06T03:52:23.176Z,100118.61
2019-05-06T03:57:16.774Z,100120.80
2019-05-06T03:59:43.707Z,100122.31
2019-05-06T04:04:36.843Z,100121.05
2019-05-06T04:07:03.596Z,100123.12
2019-05-06T04:09:29.758Z,100127.16
2019-05-06T04:11:56.450Z,100127.34
2019-05-06T04:14:24.104Z,100128.87
2019-05-06T04:16:55.087Z,100137.72
2019-05-06T04:19:26.109Z,100137.89
2019-05-06T04:21:57.488Z,100139.44
2019-05-06T04:24:29.863Z,100138.38
2019-05-06T04:27:33.883Z,100140.43
2019-05-06T04:30:04.364Z,100141.38
2019-05-06T04:32:34.088Z,100144.50
2019-05-06T04:35:00.150Z,100147.81
2019-05-06T04:37:26.667Z,100150.61
2019-05-06T04:39:53.664Z,100152.60
2019-05-06T04:44:46.189Z,100160.49
2019-05-06T04:47:14.885Z,100155.67
2019-05-06T04:49:43.422Z,100154.72
2019-05-06T04:52:08.667Z,100159.00
2019-05-06T04:54:35.452Z,100164.40
2019-05-06T04:57:04.847Z,100164.09
2019-05-06T04:59:32.451Z,100160.05
2019-05-06T05:01:58.634Z,100166.36
2019-05-06T05:04:32.226Z,100162.87
2019-05-06T05:06:55.425Z,100168.77
2019-05-06T05:09:23.027Z,100161.30
2019-05-06T05:12:08.122Z,100168.78
2019-05-06T05:14:36.190Z,100166.30
2019-05-06T05:17:04.222Z,100166.34
2019-05-06T05:19:32.788Z,100170.20
2019-05-06T05:22:05.646Z,100169.45
2019-05-06T05:29:24.675Z,100168.09
2019-05-06T05:31:52.817Z,100168.91
2019-05-06T05:34:19.904Z,100165.00
2019-05-06T05:36:46.135Z,100169.98
2019-05-06T05:39:23.338Z,100167.91
2019-05-06T05:41:52.121Z,100169.39
2019-05-06T05:44:22.660Z,100174.38
2019-05-06T05:46:48.894Z,100175.47
2019-05-06T05:49:24.599Z,100176.75
2019-05-06T05:51:52.054Z,100183.06
2019-05-06T05:56:48.019Z,100181.09
2019-05-06T05:59:14.628Z,100187.92
2019-05-06T06:01:43.476Z,100191.52
2019-05-06T06:04:16.708Z,100189.26
2019-05-06T06:06:42.850Z,100190.78
2019-05-06T06:09:09.105Z,100188.39
2019-05-06T06:11:49.398Z,100190.09
2019-05-06T06:14:34.125Z,100192.30
2019-05-06T06:17:05.026Z,100196.02
2019-05-06T06:19:34.001Z,100201.38
2019-05-06T06:22:04.378Z,100204.21
2019-05-06T06:24:37.638Z,100202.57
2019-05-06T06:29:32.385Z,100205.60
2019-05-06T06:32:06.514Z,100207.27
2019-05-06T06:34:34.673Z,100202.56
2019-05-06T06:37:22.484Z,100201.22
2019-05-06T06:39:50.119Z,100192.02
2019-05-06T06:42:16.274Z,100192.38
2019-05-06T06:44:42.480Z,100194.31
2019-05-06T06:49:34.814Z,100183.64
2019-05-06T06:54:27.537Z,100181.64
2019-05-06T06:59:31.874Z,100186.73
2019-05-06T07:02:02.598Z,100184.33
2019-05-06T07:04:32.938Z,100179.94
2019-05-06T07:07:02.755Z,100182.05
2019-05-06T07:09:29.755Z,100181.42
2019-05-06T07:11:56.137Z,100179.49
2019-05-06T07:14:22.753Z,100176.59
2019-05-06T07:16:49.386Z,100173.14
2019-05-06T07:19:17.383Z,100181.00
2019-05-06T07:21:45.570Z,100179.94
2019-05-06T07:24:13.089Z,100178.20
2019-05-06T07:26:42.583Z,100175.93
2019-05-06T07:29:15.280Z,100182.23
2019-05-06T07:31:36.785Z,100180.20
2019-05-06T07:34:02.946Z,100179.87
2019-05-06T07:36:29.080Z,100179.13
2019-05-06T07:43:52.529Z,100176.42
2019-05-06T07:46:33.170Z,100163.97
2019-05-06T07:48:59.456Z,100167.32
2019-05-06T07:51:25.610Z,100169.39
2019-05-06T07:53:52.522Z,100167.20
2019-05-06T07:56:18.867Z,100167.95
2019-05-06T07:58:45.089Z,100172.20
2019-05-06T08:01:13.618Z,100168.12
2019-05-06T08:03:39.722Z,100174.27
2019-05-06T08:06:05.865Z,100169.94
2019-05-06T08:08:33.659Z,100168.02
2019-05-06T08:11:02.479Z,100159.00
2019-05-06T08:18:21.915Z,100163.23
2019-05-06T08:20:48.249Z,100160.27
2019-05-06T08:25:44.493Z,100160.02
2019-05-06T08:28:13.069Z,100158.13
2019-05-06T08:33:05.010Z,100167.77
2019-05-06T08:35:33.056Z,100164.94
2019-05-06T08:37:59.527Z,100157.62
2019-05-06T08:40:27.516Z,100163.52
2019-05-06T08:47:45.702Z,100157.97
2019-05-06T08:52:57.068Z,100160.89
2019-05-06T08:55:34.303Z,100168.74
2019-05-06T09:00:26.946Z,100163.47
2019-05-06T09:05:19.116Z,100160.40
2019-05-06T09:07:46.742Z,100159.28
2019-05-06T09:10:13.314Z,100160.27
2019-05-06T09:12:39.448Z,100155.03
2019-05-06T09:15:05.822Z,100161.88
2019-05-06T09:17:33.039Z,100165.23
2019-05-06T09:19:59.345Z,100165.68
2019-05-06T09:22:25.535Z,100164.50
2019-05-06T09:24:53.097Z,100163.09
2019-05-06T09:27:22.614Z,100157.16
2019-05-06T09:29:52.124Z,100162.19
2019-05-06T09:32:22.529Z,100160.39
2019-05-06T09:34:52.755Z,100163.22
2019-05-06T09:37:19.633Z,100159.27
2019-05-06T09:39:46.270Z,100155.63
2019-05-06T09:42:13.136Z,100160.48
2019-05-06T09:44:42.760Z,100154.68
2019-05-06T09:47:12.711Z,100163.16
2019-05-06T09:49:42.369Z,100153.64
2019-05-06T09:52:08.075Z,100158.78
2019-05-06T09:54:42.814Z,100154.29
2019-05-06T09:57:13.959Z,100150.96
2019-05-06T09:59:42.027Z,100154.42
2019-05-06T10:02:08.303Z,100156.59
2019-05-06T10:04:34.506Z,100151.94
2019-05-06T10:07:02.627Z,100155.23
2019-05-06T10:09:28.719Z,100157.21
2019-05-06T10:11:54.893Z,100162.69
2019-05-06T10:14:23.228Z,100164.83
2019-05-06T10:16:49.178Z,100164.11
2019-05-06T10:19:15.310Z,100160.20
2019-05-06T10:21:42.793Z,100146.50
2019-05-06T10:24:09.164Z,100158.05
2019-05-06T10:26:37.246Z,100154.83
2019-05-06T10:29:05.392Z,100158.63
2019-05-06T10:31:33.481Z,100153.75
2019-05-06T10:34:14.393Z,100154.94
2019-05-06T10:39:52.243Z,100161.05
2019-05-06T10:42:24.152Z,100156.42
2019-05-06T10:45:05.169Z,100157.92
2019-05-06T10:47:33.035Z,100152.83
2019-05-06T10:49:59.454Z,100157.20
2019-05-06T10:52:27.539Z,100160.29
2019-05-06T10:54:53.710Z,100151.66
2019-05-06T10:57:22.150Z,100148.50
2019-05-06T10:59:48.388Z,100154.86
2019-05-06T11:02:19.370Z,100152.06
2019-05-06T11:04:45.592Z,100154.75
2019-05-06T11:07:12.437Z,100150.11
2019-05-06T11:09:42.497Z,100146.78
2019-05-06T11:14:33.915Z,100142.13
2019-05-06T11:17:00.047Z,100132.84
2019-05-06T11:19:26.224Z,100130.49
2019-05-06T11:21:53.163Z,100126.75
2019-05-06T11:24:19.459Z,100128.19
2019-05-06T11:26:45.630Z,100133.62
2019-05-06T11:29:13.736Z,100132.45
2019-05-06T11:31:43.313Z,100139.81
2019-05-06T11:34:28.575Z,100137.83
2019-05-06T11:36:59.699Z,100133.02
2019-05-06T11:39:25.929Z,100128.73
2019-05-06T11:42:14.533Z,100134.09
2019-05-06T11:44:20.183Z,100130.11
2019-05-06T11:46:46.366Z,100138.45
2019-05-06T11:49:12.685Z,100123.31
2019-05-06T11:51:38.905Z,100131.33
2019-05-06T11:54:16.332Z,100134.66
2019-05-06T11:56:47.564Z,100132.50
2019-05-06T11:59:02.459Z,100131.83
2019-05-06T12:01:33.646Z,100135.14
2019-05-06T12:03:59.886Z,100134.64
2019-05-06T12:06:26.197Z,100135.80
2019-05-06T12:08:52.670Z,100127.95
2019-05-06T12:11:18.837Z,100130.58
2019-05-06T12:13:45.011Z,100130.20
2019-05-06T12:16:14.026Z,100130.19
2019-05-06T12:18:39.507Z,100126.62
2019-05-06T12:21:11.301Z,100119.89
2019-05-06T12:23:35.299Z,100119.66
2019-05-06T12:26:02.414Z,100118.36
2019-05-06T12:28:29.205Z,100120.89
2019-05-06T12:30:55.351Z,100117.78
2019-05-06T12:33:29.133Z,100113.24
2019-05-06T12:35:56.687Z,100110.77
2019-05-06T12:38:34.054Z,100108.31
2019-05-06T12:41:03.158Z,100113.40
2019-05-06T12:43:30.249Z,100122.05
2019-05-06T12:46:04.038Z,100125.80
2019-05-06T12:48:47.099Z,100127.25
2019-05-06T12:51:13.240Z,100126.17
2019-05-06T12:53:39.410Z,100126.54
2019-05-06T12:56:05.551Z,100128.25
2019-05-06T12:58:31.726Z,100123.28
2019-05-06T13:00:57.973Z,100121.33
2019-05-06T13:03:24.159Z,100124.53
2019-05-06T13:05:52.106Z,100120.01
2019-05-06T13:08:20.821Z,100126.01
2019-05-06T13:10:46.464Z,100124.48
2019-05-06T13:13:12.994Z,100129.48
2019-05-06T13:15:40.265Z,100126.47
2019-05-06T13:18:07.528Z,100118.27
2019-05-06T13:20:35.088Z,100121.42
2019-05-06T13:23:20.903Z,100136.89
2019-05-06T13:25:45.500Z,100132.00
2019-05-06T13:28:13.720Z,100134.02
2019-05-06T13:30:39.864Z,100132.73
2019-05-06T13:33:26.070Z,100123.77
2019-05-06T13:35:52.731Z,100120.48
2019-05-06T13:38:18.916Z,100122.33
2019-05-06T13:40:54.075Z,100124.68
2019-05-06T13:43:23.321Z,100123.99
2019-05-06T13:45:56.733Z,100118.36
2019-05-06T13:48:28.019Z,100113.52
2019-05-06T13:51:12.418Z,100111.20
2019-05-06T13:53:41.763Z,100115.86
2019-05-06T13:56:06.835Z,100109.20
2019-05-06T13:58:33.044Z,100106.70
2019-05-06T14:01:02.900Z,100101.52
2019-05-06T14:03:29.205Z,100094.87
2019-05-06T14:05:55.410Z,100104.84
2019-05-06T14:08:22.208Z,100107.17
2019-05-06T14:10:57.546Z,100102.88
2019-05-06T14:13:16.559Z,100103.70
2019-05-06T14:15:42.739Z,100101.56
2019-05-06T14:18:08.881Z,100104.70
2019-05-06T14:20:35.089Z,100109.19
2019-05-06T14:23:02.264Z,100110.36
2019-05-06T14:25:35.398Z,100107.03
2019-05-06T14:28:12.260Z,100113.52
2019-05-06T14:30:39.939Z,100107.88
2019-05-06T14:33:06.087Z,100111.53
2019-05-06T14:35:32.608Z,100105.20
2019-05-06T14:37:58.870Z,100111.20
2019-05-06T14:40:26.990Z,100109.56
2019-05-06T14:42:53.241Z,100111.00
2019-05-06T14:45:19.441Z,100112.50
2019-05-06T14:47:45.584Z,100110.03
2019-05-06T14:50:14.487Z,100115.20
2019-05-06T14:52:42.475Z,100115.35
2019-05-06T14:55:12.591Z,100117.81
2019-05-06T14:57:38.536Z,100114.64
2019-05-06T15:00:07.513Z,100114.81
2019-05-06T15:02:34.171Z,100115.80
2019-05-06T15:05:03.054Z,100114.15
2019-05-06T15:07:28.546Z,100107.12
2019-05-06T15:10:07.868Z,100106.23
2019-05-06T15:12:23.338Z,100116.19
2019-05-06T15:14:52.374Z,100111.03
2019-05-06T15:17:18.380Z,100122.49
2019-05-06T15:19:44.519Z,100116.16
2019-05-06T15:22:12.831Z,100115.97
2019-05-06T15:24:39.099Z,100115.66
2019-05-06T15:27:05.292Z,100115.83
2019-05-06T15:29:32.001Z,100117.51
2019-05-06T15:32:02.862Z,100113.83
2019-05-06T15:34:46.835Z,100108.84
2019-05-06T15:37:14.880Z,100114.98
2019-05-06T15:39:41.081Z,100112.97
2019-05-06T15:42:07.541Z,100116.80
2019-05-06T15:44:35.455Z,100112.13
2019-05-06T15:47:03.221Z,100113.62
2019-05-06T15:49:31.869Z,100111.45
2019-05-06T15:51:57.707Z,100111.44
2019-05-06T15:54:23.852Z,100112.21
2019-05-06T15:56:50.039Z,100113.34
2019-05-06T15:59:16.186Z,100111.30
2019-05-06T16:01:43.114Z,100108.91
2019-05-06T16:04:09.395Z,100115.34
2019-05-06T16:06:35.581Z,100111.98
2019-05-06T16:09:03.649Z,100106.09
2019-05-06T16:11:29.930Z,100112.86
2019-05-06T16:13:56.076Z,100104.02
2019-05-06T16:16:22.812Z,100108.35
2019-05-06T16:18:49.072Z,100105.67
2019-05-06T16:21:15.274Z,100110.61
2019-05-06T16:23:54.793Z,100113.43
2019-05-06T16:26:22.822Z,100105.93
2019-05-06T16:28:48.757Z,100110.33
2019-05-06T16:31:14.981Z,100103.50
2019-05-06T16:33:43.084Z,100112.91
2019-05-06T16:36:09.212Z,100107.09
2019-05-06T16:38:35.387Z,100113.71
2019-05-06T16:41:10.520Z,100110.19
2019-05-06T16:43:33.681Z,100112.77
2019-05-06T16:45:57.863Z,100105.93
2019-05-06T16:48:24.036Z,100104.39
2019-05-06T16:50:50.594Z,100101.91
2019-05-06T16:53:16.756Z,100104.87
2019-05-06T16:55:52.725Z,100105.17
2019-05-06T16:58:26.863Z,100100.34
2019-05-06T17:00:53.019Z,100107.95
2019-05-06T17:03:23.078Z,100110.09
2019-05-06T17:06:09.438Z,100111.89
2019-05-06T17:08:36.464Z,100112.98
2019-05-06T17:11:04.735Z,100110.16
2019-05-06T17:13:31.117Z,100110.66
2019-05-06T17:15:59.593Z,100112.17
2019-05-06T17:18:25.837Z,100108.55
2019-05-06T17:20:52.077Z,100106.09
2019-05-06T17:23:18.245Z,100108.94
2019-05-06T17:25:44.587Z,100100.97
2019-05-06T17:28:22.203Z,100109.59
2019-05-06T17:31:02.444Z,100108.91
2019-05-06T17:33:33.505Z,100107.39
2019-05-06T17:36:03.131Z,100108.55
2019-05-06T17:38:32.126Z,100108.19
2019-05-06T17:40:59.030Z,100109.86
2019-05-06T17:43:25.565Z,100108.01
2019-05-06T17:46:01.329Z,100109.34
2019-05-06T17:48:38.763Z,100107.30
2019-05-06T17:51:09.198Z,100106.34
2019-05-06T17:53:37.749Z,100113.42
2019-05-06T17:56:03.914Z,100113.84
2019-05-06T17:58:30.331Z,100115.06
2019-05-06T18:00:57.610Z,100111.13
2019-05-06T18:03:24.952Z,100118.02
2019-05-06T18:05:52.591Z,100115.37
2019-05-06T18:08:19.285Z,100113.77
2019-05-06T18:10:45.455Z,100112.52
2019-05-06T18:13:12.578Z,100109.45
2019-05-06T18:15:39.314Z,100109.66
2019-05-06T18:18:05.490Z,100109.84
2019-05-06T18:20:33.586Z,100120.41
2019-05-06T18:23:01.955Z,100123.59
2019-05-06T18:25:27.755Z,100126.37
2019-05-06T18:27:54.740Z,100130.97
2019-05-06T18:30:28.258Z,100129.91
2019-05-06T18:32:49.087Z,100128.02
2019-05-06T18:35:15.271Z,100131.95
2019-05-06T18:37:42.625Z,100138.33
2019-05-06T18:40:09.420Z,100140.20
2019-05-06T18:42:35.590Z,100145.09
2019-05-06T18:45:03.819Z,100147.95
2019-05-06T18:47:30.009Z,100145.52
2019-05-06T18:49:56.186Z,100144.73
2019-05-06T18:52:22.976Z,100151.94
2019-05-06T18:54:49.322Z,100155.82
2019-05-06T18:57:15.470Z,100159.83
2019-05-06T18:59:42.474Z,100159.41
2019-05-06T19:02:08.918Z,100168.51
2019-05-06T19:04:37.006Z,100174.04
2019-05-06T19:07:10.521Z,100175.23
2019-05-06T19:09:33.223Z,100182.08
2019-05-06T19:11:59.373Z,100178.67
2019-05-06T19:14:25.547Z,100179.62
2019-05-06T19:16:54.599Z,100183.70
2019-05-06T19:19:19.797Z,100187.03
2019-05-06T19:21:46.027Z,100185.95
2019-05-06T19:24:12.334Z,100186.83
2019-05-06T19:26:38.731Z,100192.02
2019-05-06T19:29:04.927Z,100190.88
2019-05-06T19:31:32.259Z,100196.89
2019-05-06T19:33:58.968Z,100194.09
2019-05-06T19:36:25.140Z,100196.14
2019-05-06T19:38:51.281Z,100200.16
2019-05-06T19:41:17.522Z,100200.55
2019-05-06T19:43:43.698Z,100198.30
2019-05-06T19:46:11.979Z,100198.68
2019-05-06T19:48:37.958Z,100200.23
2019-05-06T19:51:04.137Z,100198.16
2019-05-06T19:53:32.269Z,100198.41
2019-05-06T19:55:58.384Z,100203.70
2019-05-06T19:58:24.521Z,100205.23
2019-05-06T20:00:52.816Z,100205.39
2019-05-06T20:03:20.272Z,100202.59
2019-05-06T20:05:54.609Z,100204.89
2019-05-06T20:08:23.150Z,100202.78
2019-05-06T20:11:06.313Z,100203.73
2019-05-06T20:13:32.468Z,100200.03
2019-05-06T20:15:58.654Z,100199.70
2019-05-06T20:18:24.801Z,100203.86
2019-05-06T20:20:52.860Z,100203.73
2019-05-06T20:23:19.051Z,100201.91
2019-05-06T20:25:45.460Z,100204.53
2019-05-06T20:28:13.225Z,100204.41
2019-05-06T20:30:39.546Z,100204.48
2019-05-06T20:33:05.685Z,100207.61
2019-05-06T20:35:32.336Z,100203.24
2019-05-06T20:37:58.485Z,100206.25
2019-05-06T20:40:24.698Z,100205.63
2019-05-06T20:42:51.316Z,100205.49
2019-05-06T20:45:17.794Z,100200.91
2019-05-06T20:47:43.936Z,100199.09
2019-05-06T20:50:13.265Z,100200.17
2019-05-06T20:52:39.553Z,100201.34
2019-05-06T20:55:12.664Z,100193.47
2019-05-06T20:57:34.369Z,100194.39
2019-05-06T21:00:00.500Z,100189.98
2019-05-06T21:02:26.767Z,100191.89
2019-05-06T21:04:52.918Z,100192.48
2019-05-06T21:07:19.395Z,100191.80
2019-05-06T21:09:45.541Z,100189.88
2019-05-06T21:12:11.691Z,100191.53
2019-05-06T21:14:37.875Z,100193.59
2019-05-06T21:17:04.035Z,100192.20
2019-05-06T21:19:30.216Z,100191.53
2019-05-06T21:21:56.431Z,100192.30
2019-05-06T21:24:22.754Z,100193.13
2019-05-06T21:26:52.988Z,100193.78
2019-05-06T21:29:18.691Z,100192.06
2019-05-06T21:31:44.846Z,100193.37
2019-05-06T21:34:12.829Z,100188.31
2019-05-06T21:36:39.105Z,100185.98
2019-05-06T21:39:06.037Z,100189.72
2019-05-06T21:41:32.733Z,100186.68
2019-05-06T21:44:02.490Z,100185.78
2019-05-06T21:46:28.695Z,100189.17
2019-05-06T21:48:54.853Z,100182.34
2019-05-06T21:51:22.211Z,100179.48
2019-05-06T21:53:48.620Z,100179.90
2019-05-06T21:56:14.760Z,100185.11
2019-05-06T21:58:42.829Z,100183.94
2019-05-06T22:01:09.293Z,100181.91
2019-05-06T22:03:35.796Z,100183.33
2019-05-06T22:06:02.464Z,100184.63
2019-05-06T22:08:28.588Z,100183.42
2019-05-06T22:10:54.765Z,100185.03
2019-05-06T22:13:21.861Z,100188.01
2019-05-06T22:15:48.113Z,100181.92
2019-05-06T22:18:14.815Z,100180.78
2019-05-06T22:20:59.833Z,100177.98
2019-05-06T22:23:28.028Z,100176.75
2019-05-06T22:26:07.779Z,100179.86
2019-05-06T22:28:22.761Z,100181.62
2019-05-06T22:30:49.053Z,100174.53
2019-05-06T22:33:15.240Z,100176.61
2019-05-06T22:35:43.025Z,100173.56
2019-05-06T22:38:09.373Z,100175.13
2019-05-06T22:40:35.596Z,100172.75
2019-05-06T22:43:03.177Z,100179.35
2019-05-06T22:45:29.725Z,100176.91
2019-05-06T22:47:55.874Z,100173.20
2019-05-06T22:50:22.572Z,100173.33
2019-05-06T22:52:49.154Z,100173.59
2019-05-06T22:55:15.543Z,100173.09
2019-05-06T22:57:42.327Z,100165.98
2019-05-06T23:00:15.018Z,100172.23
2019-05-06T23:02:43.466Z,100173.01
2019-05-06T23:05:32.551Z,100169.39
2019-05-06T23:07:59.396Z,100165.92
2019-05-06T23:10:25.815Z,100169.07
2019-05-06T23:12:52.367Z,100168.49
2019-05-06T23:15:18.678Z,100167.75
2019-05-06T23:17:44.843Z,100172.89
2019-05-06T23:20:11.212Z,100179.94
2019-05-06T23:22:37.367Z,100179.58
2019-05-06T23:25:05.371Z,100179.67
2019-05-06T23:27:31.515Z,100180.76
2019-05-06T23:29:58.077Z,100185.61
2019-05-06T23:32:24.228Z,100183.05
2019-05-06T23:34:52.383Z,100184.22
2019-05-06T23:37:18.530Z,100182.08
2019-05-06T23:40:42.784Z,100184.70
2019-05-06T23:44:05.501Z,100183.45
2019-05-06T23:47:28.626Z,100182.14
2019-05-06T23:50:51.214Z,100182.25
2019-05-06T23:54:13.794Z,100176.84
2019-05-06T23:56:42.868Z,100176.91
2019-05-06T23:59:12.484Z,100182.27
